createdAt,value
2018-12-19T00:01:34.497Z,17.80
2018-12-19T00:04:02.677Z,19.13
2018-12-19T00:06:30.903Z,17.43
2018-12-19T00:09:03.116Z,17.33
2018-12-19T00:11:29.748Z,18.53
2018-12-19T00:13:58.109Z,18.27
2018-12-19T00:16:26.433Z,17.83
2018-12-19T00:18:54.660Z,17.93
2018-12-19T00:21:23.136Z,17.83
2018-12-19T00:23:51.288Z,17.27
2018-12-19T00:26:19.476Z,17.13
2018-12-19T00:28:47.753Z,17.30
2018-12-19T00:31:16.189Z,17.67
2018-12-19T00:33:44.335Z,19.37
2018-12-19T00:36:12.562Z,17.47
2018-12-19T00:38:41.071Z,16.60
2018-12-19T00:41:09.621Z,17.93
2018-12-19T00:43:37.820Z,17.17
2018-12-19T00:46:05.958Z,17.70
2018-12-19T00:48:34.191Z,16.87
2018-12-19T00:51:02.383Z,17.77
2018-12-19T00:53:30.720Z,17.13
2018-12-19T00:55:59.327Z,16.53
2018-12-19T00:58:28.140Z,16.30
2018-12-19T01:00:56.376Z,16.23
2018-12-19T01:03:24.747Z,15.47
2018-12-19T01:05:53.209Z,16.53
2018-12-19T01:08:22.320Z,17.17
2018-12-19T01:10:50.525Z,17.20
2018-12-19T01:13:18.842Z,16.87
2018-12-19T01:15:47.357Z,16.97
2018-12-19T01:18:15.515Z,16.00
2018-12-19T01:20:43.886Z,17.20
2018-12-19T01:23:12.416Z,17.10
2018-12-19T01:25:40.777Z,17.07
2018-12-19T01:28:09.193Z,17.13
2018-12-19T01:30:37.369Z,17.70
2018-12-19T01:33:05.904Z,16.97
2018-12-19T01:35:34.293Z,16.33
2018-12-19T01:38:02.806Z,17.40
2018-12-19T01:40:31.083Z,15.40
2018-12-19T01:42:59.236Z,15.07
2018-12-19T01:45:27.696Z,16.67
2018-12-19T01:47:55.872Z,16.93
2018-12-19T01:50:24.391Z,16.30
2018-12-19T01:52:52.594Z,16.13
2018-12-19T01:55:20.797Z,16.07
2018-12-19T01:57:49.825Z,15.67
2018-12-19T02:00:20.089Z,15.87
2018-12-19T02:02:48.221Z,15.43
2018-12-19T02:05:16.461Z,15.87
2018-12-19T02:07:44.860Z,15.77
2018-12-19T02:10:13.106Z,15.07
2018-12-19T02:12:41.237Z,16.23
2018-12-19T02:15:09.408Z,15.97
2018-12-19T02:17:37.531Z,16.27
2018-12-19T02:20:05.804Z,16.13
2018-12-19T02:22:34.031Z,18.10
2018-12-19T02:25:02.194Z,15.20
2018-12-19T02:27:30.352Z,15.77
2018-12-19T02:29:58.706Z,15.10
2018-12-19T02:32:26.923Z,17.27
2018-12-19T02:34:55.064Z,16.27
2018-12-19T02:37:23.368Z,16.13
2018-12-19T02:39:51.532Z,16.20
2018-12-19T02:42:19.908Z,16.33
2018-12-19T02:44:48.062Z,16.17
2018-12-19T02:47:16.206Z,16.30
2018-12-19T02:49:44.353Z,15.90
2018-12-19T02:52:12.599Z,16.63
2018-12-19T02:54:40.895Z,15.40
2018-12-19T02:57:09.039Z,15.17
2018-12-19T02:59:37.178Z,15.50
2018-12-19T03:02:05.412Z,15.60
2018-12-19T03:04:33.558Z,16.20
2018-12-19T03:07:01.801Z,16.20
2018-12-19T03:09:29.936Z,15.97
2018-12-19T03:11:58.083Z,16.20
2018-12-19T03:14:26.279Z,16.60
2018-12-19T03:16:54.433Z,15.67
2018-12-19T03:19:22.581Z,16.17
2018-12-19T03:21:50.783Z,15.37
2018-12-19T03:24:19.038Z,16.50
2018-12-19T03:26:47.259Z,16.23
2018-12-19T03:29:15.408Z,15.80
2018-12-19T03:31:43.637Z,15.03
2018-12-19T03:34:18.420Z,15.53
2018-12-19T03:36:46.566Z,15.93
2018-12-19T03:39:14.791Z,16.47
2018-12-19T03:41:43.105Z,16.00
2018-12-19T03:44:11.240Z,16.63
2018-12-19T03:46:39.405Z,16.20
2018-12-19T03:49:07.559Z,15.73
2018-12-19T03:51:35.784Z,15.93
2018-12-19T03:54:04.012Z,15.67
2018-12-19T03:56:32.161Z,15.20
2018-12-19T03:59:00.416Z,16.33
2018-12-19T04:01:28.639Z,15.20
2018-12-19T04:03:56.772Z,15.37
2018-12-19T04:06:25.001Z,15.97
2018-12-19T04:08:53.247Z,16.10
2018-12-19T04:11:21.503Z,15.67
2018-12-19T04:13:49.657Z,15.73
2018-12-19T04:16:17.797Z,15.97
2018-12-19T04:18:45.970Z,17.00
2018-12-19T04:21:14.281Z,16.90
2018-12-19T04:23:42.434Z,17.00
2018-12-19T04:26:10.833Z,16.97
2018-12-19T04:28:39.075Z,16.87
2018-12-19T04:31:07.296Z,15.53
2018-12-19T04:33:35.536Z,17.03
2018-12-19T04:36:04.980Z,17.17
2018-12-19T04:38:33.629Z,16.80
2018-12-19T04:41:02.093Z,16.93
2018-12-19T04:43:30.696Z,15.23
2018-12-19T04:45:58.900Z,15.43
2018-12-19T04:48:27.071Z,15.53
2018-12-19T04:50:55.646Z,16.43
2018-12-19T04:53:23.788Z,14.87
2018-12-19T04:55:51.998Z,15.70
2018-12-19T04:58:20.136Z,15.40
2018-12-19T05:00:48.574Z,14.87
2018-12-19T05:03:16.975Z,14.60
2018-12-19T05:05:45.298Z,15.27
2018-12-19T05:08:13.528Z,15.77
2018-12-19T05:10:41.753Z,15.70
2018-12-19T05:13:10.253Z,15.83
2018-12-19T05:15:38.637Z,14.50
2018-12-19T05:18:09.873Z,15.13
2018-12-19T05:20:38.373Z,15.30
2018-12-19T05:23:06.940Z,16.80
2018-12-19T05:25:35.142Z,15.77
2018-12-19T05:28:03.496Z,14.60
2018-12-19T05:30:31.955Z,14.77
2018-12-19T05:33:00.112Z,15.37
2018-12-19T05:35:28.527Z,15.40
2018-12-19T05:37:56.657Z,16.23
2018-12-19T05:40:24.834Z,14.47
2018-12-19T05:42:53.017Z,14.87
2018-12-19T05:45:21.220Z,14.77
2018-12-19T05:47:49.396Z,14.73
2018-12-19T05:50:19.190Z,15.00
2018-12-19T05:52:47.427Z,15.50
2018-12-19T05:55:15.752Z,15.37
2018-12-19T05:57:44.016Z,14.23
2018-12-19T06:00:12.598Z,14.70
2018-12-19T06:02:40.724Z,15.30
2018-12-19T06:05:09.345Z,15.37
2018-12-19T06:07:37.821Z,15.40
2018-12-19T06:10:06.820Z,14.70
2018-12-19T06:12:35.345Z,15.77
2018-12-19T06:15:03.892Z,14.73
2018-12-19T06:17:32.599Z,15.67
2018-12-19T06:20:01.864Z,14.37
2018-12-19T06:22:30.020Z,13.83
2018-12-19T06:24:58.597Z,15.40
2018-12-19T06:27:27.153Z,14.30
2018-12-19T06:29:56.118Z,15.53
2018-12-19T06:32:24.323Z,13.80
2018-12-19T06:34:52.748Z,15.93
2018-12-19T06:37:20.907Z,14.80
2018-12-19T06:39:49.365Z,14.70
2018-12-19T06:42:17.631Z,14.93
2018-12-19T06:44:45.814Z,15.80
2018-12-19T06:47:14.000Z,15.20
2018-12-19T06:49:42.243Z,14.97
2018-12-19T06:52:10.411Z,14.87
2018-12-19T06:54:42.454Z,15.80
2018-12-19T06:57:10.915Z,15.37
2018-12-19T06:59:39.112Z,15.37
2018-12-19T07:02:07.332Z,15.23
2018-12-19T07:04:35.492Z,13.70
2018-12-19T07:07:03.797Z,16.50
2018-12-19T07:09:31.949Z,14.77
2018-12-19T07:12:00.147Z,15.40
2018-12-19T07:14:28.288Z,15.20
2018-12-19T07:16:56.469Z,15.47
2018-12-19T07:19:24.596Z,14.10
2018-12-19T07:21:52.944Z,13.93
2018-12-19T07:24:21.607Z,14.43
2018-12-19T07:26:49.808Z,15.20
2018-12-19T07:29:17.950Z,15.23
2018-12-19T07:31:46.208Z,14.77
2018-12-19T07:34:14.331Z,15.40
2018-12-19T07:36:42.692Z,16.50
2018-12-19T07:39:10.843Z,16.27
2018-12-19T07:41:38.979Z,14.87
2018-12-19T07:44:07.113Z,15.77
2018-12-19T07:46:35.399Z,15.57
2018-12-19T07:49:03.707Z,16.23
2018-12-19T07:51:31.856Z,15.57
2018-12-19T07:53:59.976Z,15.33
2018-12-19T07:56:28.441Z,14.97
2018-12-19T07:58:56.735Z,14.93
2018-12-19T08:01:24.873Z,13.80
2018-12-19T08:03:53.010Z,14.63
2018-12-19T08:06:21.137Z,14.40
2018-12-19T08:08:49.347Z,14.77
2018-12-19T08:11:17.495Z,14.30
2018-12-19T08:13:45.636Z,15.17
2018-12-19T08:16:13.841Z,15.23
2018-12-19T08:18:42.065Z,15.03
2018-12-19T08:21:10.213Z,14.97
2018-12-19T08:23:38.354Z,14.10
2018-12-19T08:26:06.504Z,15.43
2018-12-19T08:28:34.731Z,15.10
2018-12-19T08:31:02.864Z,15.60
2018-12-19T08:33:31.008Z,15.27
2018-12-19T08:35:59.152Z,14.80
2018-12-19T08:38:28.508Z,14.77
2018-12-19T08:40:58.839Z,14.40
2018-12-19T08:43:27.111Z,14.57
2018-12-19T08:45:55.629Z,13.73
2018-12-19T08:48:23.836Z,13.43
2018-12-19T08:50:51.989Z,15.93
2018-12-19T08:53:20.148Z,13.23
2018-12-19T08:55:48.247Z,14.20
2018-12-19T08:58:16.392Z,14.80
2018-12-19T09:00:44.684Z,13.80
2018-12-19T09:03:12.960Z,13.13
2018-12-19T09:05:41.638Z,14.97
2018-12-19T09:08:10.027Z,14.50
2018-12-19T09:10:38.163Z,14.67
2018-12-19T09:13:06.292Z,13.07
2018-12-19T09:15:40.101Z,13.93
2018-12-19T09:18:08.236Z,14.17
2018-12-19T09:20:36.441Z,14.37
2018-12-19T09:23:04.584Z,14.20
2018-12-19T09:25:32.724Z,13.70
2018-12-19T09:28:02.241Z,13.40
2018-12-19T09:30:31.081Z,14.40
2018-12-19T09:32:59.242Z,13.67
2018-12-19T09:35:27.361Z,13.70
2018-12-19T09:37:55.583Z,14.27
2018-12-19T09:40:23.730Z,15.37
2018-12-19T09:42:52.000Z,14.07
2018-12-19T09:45:20.172Z,15.30
2018-12-19T09:47:48.308Z,13.80
2018-12-19T09:50:16.468Z,13.80
2018-12-19T09:52:44.599Z,14.17
2018-12-19T09:55:12.825Z,14.07
2018-12-19T09:57:41.253Z,13.33
2018-12-19T10:00:15.285Z,12.43
2018-12-19T10:02:43.527Z,13.23
2018-12-19T10:05:12.601Z,14.60
2018-12-19T10:07:40.775Z,13.47
2018-12-19T10:10:09.001Z,14.40
2018-12-19T10:12:37.147Z,14.27
2018-12-19T10:15:05.453Z,15.03
2018-12-19T10:17:33.688Z,14.70
2018-12-19T10:20:01.931Z,13.37
2018-12-19T10:22:32.424Z,13.40
2018-12-19T10:25:06.655Z,14.73
2018-12-19T10:27:34.997Z,14.80
2018-12-19T10:30:03.273Z,15.07
2018-12-19T10:32:36.984Z,14.27
2018-12-19T10:35:05.366Z,12.93
2018-12-19T10:37:33.585Z,13.43
2018-12-19T10:40:01.792Z,14.17
2018-12-19T10:42:29.943Z,14.43
2018-12-19T10:44:58.097Z,13.67
2018-12-19T10:47:26.437Z,14.40
2018-12-19T10:49:54.727Z,15.47
2018-12-19T10:52:22.840Z,16.27
2018-12-19T10:54:51.042Z,15.57
2018-12-19T10:57:19.176Z,15.10
2018-12-19T10:59:47.321Z,16.23
2018-12-19T11:02:15.512Z,15.77
2018-12-19T11:04:43.657Z,15.30
2018-12-19T11:07:11.868Z,15.67
2018-12-19T11:09:40.076Z,15.67
2018-12-19T11:12:08.337Z,15.17
2018-12-19T11:14:36.569Z,16.83
2018-12-19T11:17:04.995Z,15.57
2018-12-19T11:19:33.225Z,15.23
2018-12-19T11:22:01.383Z,15.87
2018-12-19T11:24:29.645Z,17.00
2018-12-19T11:26:57.920Z,16.90
2018-12-19T11:29:26.692Z,16.13
2018-12-19T11:31:55.184Z,17.47
2018-12-19T11:34:23.428Z,16.77
2018-12-19T11:36:51.582Z,15.37
2018-12-19T11:39:19.725Z,15.23
2018-12-19T11:41:47.912Z,14.63
2018-12-19T11:44:16.088Z,16.00
2018-12-19T11:46:44.228Z,16.10
2018-12-19T11:49:12.415Z,16.43
2018-12-19T11:51:40.578Z,15.77
2018-12-19T11:54:08.800Z,16.10
2018-12-19T11:56:37.048Z,15.93
2018-12-19T11:59:05.492Z,16.60
2018-12-19T12:01:33.923Z,14.77
2018-12-19T12:04:02.252Z,16.67
2018-12-19T12:06:30.514Z,17.63
2018-12-19T12:08:58.961Z,15.87
2018-12-19T12:11:27.243Z,18.17
2018-12-19T12:13:55.718Z,18.07
2018-12-19T12:16:23.893Z,19.23
2018-12-19T12:18:52.219Z,19.57
2018-12-19T12:21:20.666Z,19.00
2018-12-19T12:23:48.977Z,19.17
2018-12-19T12:26:17.207Z,17.13
2018-12-19T12:28:45.461Z,17.27
2018-12-19T12:31:13.690Z,19.10
2018-12-19T12:33:42.119Z,18.57
2018-12-19T12:36:10.580Z,19.67
2018-12-19T12:38:38.974Z,20.60
2018-12-19T12:41:07.305Z,19.57
2018-12-19T12:43:36.337Z,19.17
2018-12-19T12:46:04.608Z,19.20
2018-12-19T12:48:32.961Z,17.97
2018-12-19T12:51:01.341Z,19.93
2018-12-19T12:53:29.513Z,18.80
2018-12-19T12:55:57.740Z,18.97
2018-12-19T12:58:26.215Z,18.77
2018-12-19T13:00:54.761Z,19.20
2018-12-19T13:03:23.095Z,17.70
2018-12-19T13:05:51.457Z,18.23
2018-12-19T13:08:19.691Z,17.27
2018-12-19T13:10:47.984Z,17.50
2018-12-19T13:13:16.242Z,17.40
2018-12-19T13:15:48.926Z,17.57
2018-12-19T13:18:17.190Z,16.87
2018-12-19T13:20:45.462Z,18.13
2018-12-19T13:23:13.728Z,18.27
2018-12-19T13:25:41.905Z,19.03
2018-12-19T13:28:10.683Z,17.27
2018-12-19T13:30:38.812Z,18.17
2018-12-19T13:33:07.024Z,19.13
2018-12-19T13:35:35.260Z,19.37
2018-12-19T13:38:03.452Z,18.73
2018-12-19T13:40:31.625Z,19.20
2018-12-19T13:42:59.778Z,20.57
2018-12-19T13:45:27.968Z,20.87
2018-12-19T13:47:56.101Z,18.97
2018-12-19T13:50:25.001Z,19.97
2018-12-19T13:52:53.265Z,20.47
2018-12-19T13:55:21.584Z,21.13
2018-12-19T13:57:49.756Z,18.40
2018-12-19T14:00:20.965Z,18.70
2018-12-19T14:02:49.104Z,17.93
2018-12-19T14:05:17.487Z,16.83
2018-12-19T14:07:45.634Z,16.87
2018-12-19T14:10:14.004Z,17.10
2018-12-19T14:12:42.224Z,19.00
2018-12-19T14:15:10.621Z,18.00
2018-12-19T14:17:38.903Z,19.00
2018-12-19T14:20:08.011Z,18.50
2018-12-19T14:22:36.191Z,19.23
2018-12-19T14:25:04.782Z,17.27
2018-12-19T14:27:32.915Z,21.00
2018-12-19T14:30:01.145Z,20.07
2018-12-19T14:32:29.343Z,20.23
2018-12-19T14:34:57.520Z,22.53
2018-12-19T14:37:25.863Z,20.30
2018-12-19T14:39:54.175Z,19.70
2018-12-19T14:42:22.328Z,20.10
2018-12-19T14:44:50.530Z,18.87
2018-12-19T14:47:18.694Z,19.57
2018-12-19T14:49:46.905Z,20.47
2018-12-19T14:52:15.082Z,20.30
2018-12-19T14:54:43.325Z,22.30
2018-12-19T14:57:11.542Z,20.67
2018-12-19T14:59:39.895Z,22.90
2018-12-19T15:02:08.164Z,21.53
2018-12-19T15:04:36.363Z,22.53
2018-12-19T15:07:04.597Z,22.00
2018-12-19T15:09:32.792Z,24.00
2018-12-19T15:12:01.000Z,22.80
2018-12-19T15:14:29.155Z,23.00
2018-12-19T15:16:57.428Z,24.63
2018-12-19T15:19:25.617Z,23.37
2018-12-19T15:21:53.764Z,22.47
2018-12-19T15:24:22.048Z,22.53
2018-12-19T15:26:50.199Z,23.57
2018-12-19T15:29:18.460Z,21.80
2018-12-19T15:31:46.688Z,23.77
2018-12-19T15:34:14.884Z,23.53
2018-12-19T15:36:43.100Z,25.53
2018-12-19T15:39:11.315Z,22.90
2018-12-19T15:41:39.453Z,24.93
2018-12-19T15:44:07.648Z,23.17
2018-12-19T15:46:35.899Z,22.97
2018-12-19T15:49:04.668Z,23.43
2018-12-19T15:51:32.990Z,23.07
2018-12-19T15:54:01.453Z,24.00
2018-12-19T15:56:29.588Z,22.03
2018-12-19T15:58:58.177Z,23.43
2018-12-19T16:01:26.395Z,22.10
2018-12-19T16:03:54.583Z,22.57
2018-12-19T16:06:23.110Z,21.37
2018-12-19T16:08:51.373Z,25.13
2018-12-19T16:11:19.676Z,21.97
2018-12-19T16:13:47.849Z,21.27
2018-12-19T16:16:16.083Z,22.30
2018-12-19T16:18:44.463Z,24.60
2018-12-19T16:21:12.785Z,21.10
2018-12-19T16:23:40.993Z,19.80
2018-12-19T16:26:09.250Z,21.00
2018-12-19T16:28:37.524Z,21.13
2018-12-19T16:31:05.812Z,22.27
2018-12-19T16:33:33.959Z,22.73
2018-12-19T16:36:02.389Z,22.47
2018-12-19T16:38:30.651Z,22.83
2018-12-19T16:40:59.095Z,23.23
2018-12-19T16:43:27.658Z,24.27
2018-12-19T16:45:55.893Z,19.93
2018-12-19T16:48:24.030Z,23.80
2018-12-19T16:50:52.180Z,22.77
2018-12-19T16:53:20.784Z,22.00
2018-12-19T16:55:49.514Z,21.73
2018-12-19T16:58:17.771Z,25.67
2018-12-19T17:00:46.064Z,23.53
2018-12-19T17:03:14.268Z,23.93
2018-12-19T17:05:42.426Z,24.80
2018-12-19T17:08:10.749Z,25.00
2018-12-19T17:10:39.180Z,25.13
2018-12-19T17:13:07.650Z,23.87
2018-12-19T17:15:36.109Z,26.03
2018-12-19T17:18:04.539Z,26.90
2018-12-19T17:20:39.913Z,26.87
2018-12-19T17:23:08.219Z,24.07
2018-12-19T17:25:36.376Z,24.83
2018-12-19T17:28:04.640Z,25.43
2018-12-19T17:30:32.899Z,24.83
2018-12-19T17:33:01.103Z,24.97
2018-12-19T17:35:29.424Z,26.70
2018-12-19T17:37:57.656Z,27.23
2018-12-19T17:40:25.854Z,25.37
2018-12-19T17:42:59.408Z,25.47
2018-12-19T17:45:24.260Z,25.83
2018-12-19T17:47:52.427Z,25.60
2018-12-19T17:50:20.571Z,27.27
2018-12-19T17:52:48.742Z,29.40
2018-12-19T17:55:16.920Z,31.60
2018-12-19T17:57:45.158Z,33.47
2018-12-19T18:00:13.473Z,34.07
2018-12-19T18:02:41.732Z,31.90
2018-12-19T18:05:10.154Z,30.27
2018-12-19T18:07:38.323Z,29.17
2018-12-19T18:10:06.789Z,30.40
2018-12-19T18:12:35.070Z,32.80
2018-12-19T18:15:03.725Z,31.60
2018-12-19T18:17:32.239Z,30.70
2018-12-19T18:20:00.421Z,33.20
2018-12-19T18:22:28.566Z,32.97
2018-12-19T18:24:56.723Z,30.80
2018-12-19T18:27:24.951Z,30.70
2018-12-19T18:29:53.196Z,31.10
2018-12-19T18:32:21.333Z,29.43
2018-12-19T18:34:49.558Z,28.90
2018-12-19T18:37:17.799Z,28.33
2018-12-19T18:39:45.977Z,26.37
2018-12-19T18:42:14.151Z,29.10
2018-12-19T18:44:42.418Z,26.47
2018-12-19T18:47:10.647Z,24.87
2018-12-19T18:49:38.882Z,25.73
2018-12-19T18:52:07.019Z,23.03
2018-12-19T18:54:35.194Z,24.40
2018-12-19T18:57:03.412Z,27.03
2018-12-19T18:59:31.611Z,21.00
2018-12-19T19:01:59.807Z,18.70
2018-12-19T19:04:28.139Z,24.60
2018-12-19T19:06:56.314Z,28.87
2018-12-19T19:09:24.525Z,26.90
2018-12-19T19:11:52.758Z,21.07
2018-12-19T19:14:20.984Z,18.17
2018-12-19T19:16:49.277Z,19.60
2018-12-19T19:19:17.489Z,28.90
2018-12-19T19:21:45.653Z,30.03
2018-12-19T19:24:13.792Z,31.13
2018-12-19T19:26:42.053Z,24.33
2018-12-19T19:29:10.288Z,27.93
2018-12-19T19:31:38.694Z,28.33
2018-12-19T19:34:06.884Z,27.07
2018-12-19T19:36:35.139Z,27.93
2018-12-19T19:39:05.372Z,24.90
2018-12-19T19:41:33.563Z,23.93
2018-12-19T19:44:01.791Z,22.23
2018-12-19T19:46:29.963Z,23.80
2018-12-19T19:48:58.290Z,26.50
2018-12-19T19:51:26.461Z,29.37
2018-12-19T19:53:54.620Z,29.13
2018-12-19T19:56:22.886Z,33.00
2018-12-19T19:58:51.254Z,31.60
2018-12-19T20:01:19.940Z,27.00
2018-12-19T20:03:48.101Z,21.43
2018-12-19T20:06:18.129Z,21.97
2018-12-19T20:08:46.282Z,20.43
2018-12-19T20:11:14.594Z,21.60
2018-12-19T20:13:42.840Z,25.67
2018-12-19T20:16:11.030Z,25.00
2018-12-19T20:18:39.207Z,26.97
2018-12-19T20:21:07.559Z,26.13
2018-12-19T20:23:35.809Z,28.53
2018-12-19T20:26:04.507Z,27.97
2018-12-19T20:28:32.709Z,26.90
2018-12-19T20:31:01.045Z,34.30
2018-12-19T20:33:29.282Z,29.97
2018-12-19T20:35:57.688Z,27.87
2018-12-19T20:38:25.859Z,25.63
2018-12-19T20:40:54.112Z,27.93
2018-12-19T20:43:22.278Z,34.60
2018-12-19T20:45:50.709Z,31.30
2018-12-19T20:48:25.434Z,33.50
2018-12-19T20:50:53.921Z,34.00
2018-12-19T20:53:22.129Z,34.83
2018-12-19T20:55:50.470Z,28.57
2018-12-19T20:58:19.204Z,29.80
2018-12-19T21:00:47.585Z,25.40
2018-12-19T21:03:16.005Z,25.10
2018-12-19T21:05:44.221Z,27.10
2018-12-19T21:08:12.419Z,24.60
2018-12-19T21:10:40.750Z,19.87
2018-12-19T21:13:08.952Z,20.07
2018-12-19T21:15:37.106Z,22.57
2018-12-19T21:18:10.784Z,22.07
2018-12-19T21:20:39.008Z,21.50
2018-12-19T21:23:07.188Z,18.30
2018-12-19T21:25:35.420Z,24.47
2018-12-19T21:28:03.716Z,19.73
2018-12-19T21:30:31.927Z,12.43
2018-12-19T21:33:00.066Z,10.73
2018-12-19T21:35:28.305Z,10.47
2018-12-19T21:37:56.546Z,10.27
2018-12-19T21:40:24.694Z,15.60
2018-12-19T21:42:53.089Z,17.13
2018-12-19T21:45:21.343Z,18.10
2018-12-19T21:47:49.660Z,18.30
2018-12-19T21:50:17.879Z,19.63
2018-12-19T21:52:46.093Z,17.70
2018-12-19T21:55:14.399Z,18.57
2018-12-19T21:57:42.692Z,15.50
2018-12-19T22:00:17.493Z,12.93
2018-12-19T22:02:45.717Z,13.93
2018-12-19T22:05:13.926Z,13.23
2018-12-19T22:07:42.259Z,12.63
2018-12-19T22:10:10.583Z,12.77
2018-12-19T22:12:38.929Z,11.73
2018-12-19T22:15:07.330Z,11.57
2018-12-19T22:17:41.082Z,11.23
2018-12-19T22:20:09.485Z,10.63
2018-12-19T22:22:37.751Z,11.57
2018-12-19T22:25:06.073Z,11.27
2018-12-19T22:27:34.475Z,10.53
2018-12-19T22:30:02.825Z,12.53
2018-12-19T22:32:31.068Z,16.17
2018-12-19T22:34:59.203Z,17.97
2018-12-19T22:37:27.388Z,19.77
2018-12-19T22:39:55.699Z,23.77
2018-12-19T22:42:23.964Z,20.13
2018-12-19T22:44:52.160Z,20.13
2018-12-19T22:47:21.695Z,20.20
2018-12-19T22:49:50.055Z,18.33
2018-12-19T22:52:18.263Z,19.70
2018-12-19T22:54:46.496Z,19.47
2018-12-19T22:57:14.678Z,20.47
2018-12-19T22:59:42.903Z,21.70
2018-12-19T23:02:16.400Z,23.53
2018-12-19T23:04:44.703Z,21.47
2018-12-19T23:07:12.965Z,20.90
2018-12-19T23:09:41.302Z,22.20
2018-12-19T23:12:09.524Z,22.63
2018-12-19T23:14:37.761Z,21.30
2018-12-19T23:17:11.319Z,22.23
2018-12-19T23:19:39.549Z,24.27
2018-12-19T23:22:07.914Z,23.27
2018-12-19T23:24:36.186Z,20.70
2018-12-19T23:27:04.657Z,22.43
2018-12-19T23:29:32.824Z,19.40
2018-12-19T23:32:01.138Z,19.00
2018-12-19T23:34:29.504Z,15.97
2018-12-19T23:36:57.780Z,13.40
2018-12-19T23:39:26.028Z,13.77
2018-12-19T23:41:54.283Z,16.97
2018-12-19T23:44:28.032Z,26.23
2018-12-19T23:46:57.680Z,23.03
2018-12-19T23:49:26.010Z,21.83
2018-12-19T23:51:54.374Z,20.00
2018-12-19T23:54:28.858Z,17.50
2018-12-19T23:56:52.934Z,16.90
2018-12-19T23:59:21.185Z,16.20
